Monday, December 18, 2017, 11:37 AM EST
Back to Local

KTHV, York Airport

Location: Spring Grove, PA, United States Lat: 39.917
Local Time: 11:37 AM EST (16:37 GMT) Lon: -76.883
Time Zone: US/Eastern Elev: 478 ft

Show me the last for .
Show Coded

Time T Td Feel RH Dir Speed Gust Alt SLP Vis Weather Sky Remarks
2017-12-18 10:53 39 33 - 79 - Calm - 30.09 30.10 5 HZ OVC055 None
2017-12-18 09:53 37 32 - 81 - Calm - 30.11 30.13 5 HZ OVC055 None
2017-12-18 08:53 35 32 - 88 - Calm - 30.11 30.13 4 BR OVC060 None
2017-12-18 07:53 30 29 - 95 - Calm - 30.11 30.13 3 BR FEW050 OVC065 None
2017-12-18 07:34 29 29 - 100 - Calm - 30.10 - 2 BR OVC070 None
2017-12-18 06:53 29 28 - 96 - Calm - 30.10 30.13 4 BR OVC070 6-hr Precip Total (7am): 0.00"
6-hr Min Temp (7am): 27.0°F
6-hr Max Temp (7am): 37.0°F
2017-12-18 05:53 30 29 - 95 - Calm - 30.09 30.11 4 BR BKN075 None
2017-12-18 04:53 34 31 - 88 - Calm - 30.11 30.12 6 BR FEW060 OVC080 1-hr Precip Total: Trace
2017-12-18 03:53 35 30 - 81 - Calm - 30.12 30.14 7 OVC050 None
2017-12-18 02:53 36 31 - 81 - Calm - 30.12 30.14 7 OVC060 None
2017-12-18 01:53 36 31 - 81 - Calm - 30.12 30.13 7 OVC060 None
2017-12-18 00:53 36 31 32 81 10° 5 - 30.13 30.14 7 OVC070 6-hr Min Temp (1am): 34.0°F
6-hr Max Temp (1am): 37.9°F
2017-12-17 23:53 37 31 33 78 130° 5 - 30.13 30.15 7 OVC090 24-hr Min Temp (12am): 19.9°F
24-hr Max Temp (12am): 46.0°F
2017-12-17 22:53 38 31 - 75 - Calm - 30.14 30.16 7 FEW080 OVC095 None
2017-12-17 21:53 37 31 34 78 110° 3 - 30.15 30.17 7 OVC100 None
2017-12-17 20:53 38 31 - 75 - Calm - 30.17 30.19 7 OVC070 None
2017-12-17 19:53 35 30 - 81 - Calm - 30.17 30.19 8 BKN065 OVC085 None
2017-12-17 18:53 35 29 - 78 - Calm - 30.19 30.21 8 BKN100 6-hr Min Temp (7pm): 35.1°F
6-hr Max Temp (7pm): 46.0°F
2017-12-17 17:53 37 30 - 75 - Calm - 30.20 30.22 9 OVC100 None
2017-12-17 16:53 41 30 - 64 - Calm - 30.18 30.20 9 BKN110 None
2017-12-17 15:53 43 31 41 62 120° 3 - 30.17 30.19 10 CLR None
2017-12-17 14:53 44 30 43 57 110° 3 - 30.17 30.19 10 CLR None
2017-12-17 13:53 45 29 - 53 - Calm - 30.18 30.20 10 CLR None
2017-12-17 12:53 41 30 - 64 - Calm - 30.21 30.23 10 CLR 6-hr Min Temp (1pm): 23.0°F
6-hr Max Temp (1pm): 41.0°F
2017-12-17 11:53 38 28 - 67 - Calm - 30.25 30.27 9 CLR None

Support USWX by starting your Amazon purchase here.